createdAt,value
2018-05-03T00:00:20.101Z,15.30
2018-05-03T00:02:48.285Z,15.40
2018-05-03T00:05:16.442Z,15.40
2018-05-03T00:07:44.630Z,15.60
2018-05-03T00:10:12.748Z,15.60
2018-05-03T00:12:40.888Z,15.60
2018-05-03T00:15:09.034Z,15.50
2018-05-03T00:17:37.147Z,15.50
2018-05-03T00:20:05.269Z,15.40
2018-05-03T00:22:33.425Z,15.60
2018-05-03T00:25:02.314Z,15.40
2018-05-03T00:27:30.447Z,15.30
2018-05-03T00:29:58.601Z,15.30
2018-05-03T00:32:26.718Z,15.20
2018-05-03T00:34:54.837Z,15.00
2018-05-03T00:37:22.997Z,14.70
2018-05-03T00:39:51.130Z,14.90
2018-05-03T00:42:19.249Z,14.80
2018-05-03T00:44:47.389Z,14.60
2018-05-03T00:47:16.281Z,15.00
2018-05-03T00:49:45.162Z,15.20
2018-05-03T00:52:14.071Z,15.10
2018-05-03T00:54:48.147Z,15.10
2018-05-03T00:57:16.293Z,15.00
2018-05-03T00:59:44.412Z,14.90
2018-05-03T01:02:13.317Z,14.20
2018-05-03T01:04:41.435Z,14.80
2018-05-03T01:07:09.556Z,14.90
2018-05-03T01:09:38.356Z,14.90
2018-05-03T01:12:06.480Z,14.80
2018-05-03T01:14:34.622Z,14.80
2018-05-03T01:17:02.737Z,14.70
2018-05-03T01:19:30.858Z,14.40
2018-05-03T01:21:58.997Z,14.60
2018-05-03T01:24:27.880Z,15.00
2018-05-03T01:26:55.996Z,15.00
2018-05-03T01:29:24.172Z,15.00
2018-05-03T01:31:52.290Z,15.10
2018-05-03T01:34:21.184Z,15.10
2018-05-03T01:36:50.109Z,14.90
2018-05-03T01:39:18.224Z,14.90
2018-05-03T01:41:46.393Z,15.20
2018-05-03T01:44:14.562Z,14.50
2018-05-03T01:46:42.713Z,14.80
2018-05-03T01:49:10.866Z,14.90
2018-05-03T01:51:39.004Z,14.90
2018-05-03T01:54:07.901Z,15.10
2018-05-03T01:56:36.830Z,15.00
2018-05-03T01:59:04.978Z,14.10
2018-05-03T02:01:33.134Z,14.40
2018-05-03T02:04:02.081Z,14.60
2018-05-03T02:06:30.269Z,13.90
2018-05-03T02:08:58.393Z,14.20
2018-05-03T02:11:26.550Z,15.00
2018-05-03T02:13:55.461Z,14.30
2018-05-03T02:16:23.585Z,14.60
2018-05-03T02:18:51.733Z,15.20
2018-05-03T02:21:19.925Z,15.10
2018-05-03T02:23:48.090Z,15.10
2018-05-03T02:26:16.225Z,15.30
2018-05-03T02:28:44.395Z,15.30
2018-05-03T02:31:12.517Z,15.30
2018-05-03T02:33:40.677Z,15.20
2018-05-03T02:36:08.852Z,15.20
2018-05-03T02:38:36.992Z,15.10
2018-05-03T02:41:05.143Z,15.10
2018-05-03T02:43:33.313Z,15.00
2018-05-03T02:46:01.470Z,14.70
2018-05-03T02:48:30.384Z,14.90
2018-05-03T02:50:58.500Z,14.40
2018-05-03T02:53:26.629Z,14.40
2018-05-03T02:55:54.811Z,14.00
2018-05-03T02:58:40.901Z,14.50
2018-05-03T03:01:32.654Z,14.40
2018-05-03T03:04:24.546Z,14.30
2018-05-03T03:07:16.342Z,14.40
2018-05-03T03:13:43.779Z,14.60
2018-05-03T03:16:35.560Z,14.60
2018-05-03T03:19:28.543Z,14.50
2018-05-03T03:22:20.194Z,14.60
2018-05-03T03:28:42.453Z,14.30
2018-05-03T03:31:34.172Z,14.10
2018-05-03T03:34:12.286Z,14.00
2018-05-03T03:40:24.185Z,13.60
2018-05-03T03:46:00.660Z,12.40
2018-05-03T03:48:28.798Z,12.80
2018-05-03T03:50:57.730Z,12.30
2018-05-03T03:53:25.868Z,12.80
2018-05-03T03:55:54.784Z,12.90
2018-05-03T03:58:22.952Z,12.80
2018-05-03T04:00:51.097Z,13.20
2018-05-03T04:03:20.001Z,12.90
2018-05-03T04:05:48.935Z,13.40
2018-05-03T04:08:17.056Z,13.20
2018-05-03T04:10:45.977Z,13.40
2018-05-03T04:13:14.109Z,13.10
2018-05-03T04:15:42.236Z,13.30
2018-05-03T04:18:28.220Z,13.50
2018-05-03T04:21:16.029Z,13.90
2018-05-03T04:24:12.728Z,14.00
2018-05-03T04:26:40.853Z,13.70
2018-05-03T04:29:09.006Z,14.10
2018-05-03T04:31:37.950Z,13.80
2018-05-03T04:34:06.080Z,14.10
2018-05-03T04:36:34.233Z,14.30
2018-05-03T04:39:02.398Z,14.80
2018-05-03T04:41:30.517Z,14.40
2018-05-03T04:43:58.677Z,14.90
2018-05-03T04:46:26.825Z,14.90
2018-05-03T04:48:55.754Z,15.10
2018-05-03T04:51:23.915Z,14.90
2018-05-03T04:53:52.091Z,15.00
2018-05-03T04:56:20.217Z,15.00
2018-05-03T04:58:48.372Z,14.90
2018-05-03T05:01:16.493Z,15.00
2018-05-03T05:03:44.652Z,15.20
2018-05-03T05:06:13.557Z,15.00
2018-05-03T05:08:41.706Z,15.00
2018-05-03T05:11:10.610Z,15.20
2018-05-03T05:13:39.549Z,15.10
2018-05-03T05:16:07.683Z,15.30
2018-05-03T05:18:35.849Z,15.00
2018-05-03T05:21:04.767Z,15.30
2018-05-03T05:23:32.922Z,15.60
2018-05-03T05:26:01.086Z,15.40
2018-05-03T05:28:29.212Z,15.40
2018-05-03T05:30:57.394Z,15.30
2018-05-03T05:33:25.516Z,15.10
2018-05-03T05:35:53.644Z,14.70
2018-05-03T05:38:21.809Z,14.50
2018-05-03T05:40:50.038Z,14.50
2018-05-03T05:43:18.240Z,14.20
2018-05-03T05:45:46.386Z,14.80
2018-05-03T05:48:14.575Z,15.00
2018-05-03T05:50:42.725Z,15.20
2018-05-03T05:53:10.840Z,15.60
2018-05-03T05:55:38.957Z,15.90
2018-05-03T05:58:07.889Z,15.90
2018-05-03T06:00:36.042Z,15.60
2018-05-03T06:03:04.204Z,16.40
2018-05-03T06:05:32.346Z,16.80
2018-05-03T06:08:00.490Z,16.90
2018-05-03T06:10:28.634Z,17.10
2018-05-03T06:12:56.769Z,17.00
2018-05-03T06:15:25.656Z,17.00
2018-05-03T06:17:54.536Z,17.10
2018-05-03T06:20:22.665Z,17.50
2018-05-03T06:22:50.830Z,17.80
2018-05-03T06:25:18.998Z,17.30
2018-05-03T06:27:47.126Z,16.60
2018-05-03T06:30:15.290Z,16.90
2018-05-03T06:32:43.408Z,17.00
2018-05-03T06:35:11.565Z,16.80
2018-05-03T06:37:39.758Z,16.70
2018-05-03T06:40:07.989Z,16.80
2018-05-03T06:42:36.169Z,17.50
2018-05-03T06:45:05.091Z,17.60
2018-05-03T06:47:33.246Z,17.90
2018-05-03T06:50:02.169Z,17.30
2018-05-03T06:52:30.346Z,17.20
2018-05-03T06:54:58.531Z,17.20
2018-05-03T06:57:26.665Z,17.60
2018-05-03T06:59:54.829Z,17.50
2018-05-03T07:02:23.773Z,18.00
2018-05-03T07:04:51.896Z,18.40
2018-05-03T07:07:20.067Z,18.90
2018-05-03T07:09:48.225Z,18.80
2018-05-03T07:12:16.378Z,19.40
2018-05-03T07:14:44.544Z,19.70
2018-05-03T07:17:12.722Z,19.80
2018-05-03T07:19:40.878Z,20.10
2018-05-03T07:22:09.026Z,19.30
2018-05-03T07:24:37.180Z,19.00
2018-05-03T07:27:05.313Z,19.40
2018-05-03T07:29:33.523Z,19.80
2018-05-03T07:32:01.620Z,19.50
2018-05-03T07:34:29.737Z,19.40
2018-05-03T07:36:57.861Z,19.50
2018-05-03T07:39:26.015Z,19.70
2018-05-03T07:41:54.174Z,19.70
2018-05-03T07:44:23.131Z,20.00
2018-05-03T07:46:51.272Z,20.20
2018-05-03T07:49:19.426Z,20.20
2018-05-03T07:51:47.592Z,20.50
2018-05-03T07:54:15.757Z,21.00
2018-05-03T07:56:44.719Z,21.20
2018-05-03T07:59:12.878Z,21.10
2018-05-03T08:01:41.046Z,21.90
2018-05-03T08:04:09.233Z,21.90
2018-05-03T08:06:37.369Z,21.80
2018-05-03T08:09:07.467Z,21.70
2018-05-03T08:11:35.585Z,21.50
2018-05-03T08:14:03.750Z,21.30
2018-05-03T08:16:31.917Z,21.40
2018-05-03T08:19:00.057Z,21.20
2018-05-03T08:21:28.212Z,21.20
2018-05-03T08:23:57.157Z,20.60
2018-05-03T08:26:25.277Z,20.90
2018-05-03T08:28:54.189Z,20.90
2018-05-03T08:31:22.330Z,20.00
2018-05-03T08:33:51.212Z,19.60
2018-05-03T08:36:19.367Z,19.20
2018-05-03T08:38:47.508Z,19.50
2018-05-03T08:41:15.620Z,19.30
2018-05-03T08:43:43.766Z,19.20
2018-05-03T08:46:11.918Z,19.50
2018-05-03T08:48:40.033Z,18.90
2018-05-03T08:51:08.184Z,19.20
2018-05-03T08:53:36.350Z,19.60
2018-05-03T08:56:04.497Z,19.40
2018-05-03T08:58:32.666Z,19.60
2018-05-03T09:01:00.828Z,19.60
2018-05-03T09:03:29.010Z,19.00
2018-05-03T09:05:57.162Z,18.80
2018-05-03T09:08:26.076Z,18.80
2018-05-03T09:10:54.258Z,19.20
2018-05-03T09:13:22.385Z,19.20
2018-05-03T09:15:50.501Z,19.60
2018-05-03T09:18:18.682Z,19.90
2018-05-03T09:20:46.847Z,19.90
2018-05-03T09:23:14.969Z,20.30
2018-05-03T09:25:43.137Z,20.20
2018-05-03T09:28:11.260Z,19.90
2018-05-03T09:30:39.406Z,20.30
2018-05-03T09:33:08.308Z,20.30
2018-05-03T09:35:37.189Z,20.00
2018-05-03T09:38:06.118Z,19.70
2018-05-03T09:40:34.248Z,20.00
2018-05-03T09:43:03.169Z,20.70
2018-05-03T09:45:31.500Z,21.20
2018-05-03T09:47:59.617Z,21.20
2018-05-03T09:50:27.792Z,21.10
2018-05-03T09:52:55.954Z,20.70
2018-05-03T09:55:24.079Z,20.90
2018-05-03T09:57:52.228Z,20.50
2018-05-03T10:00:20.356Z,20.90
2018-05-03T10:02:49.282Z,21.30
2018-05-03T10:05:17.421Z,21.20
2018-05-03T10:07:45.590Z,21.00
2018-05-03T10:10:14.532Z,21.10
2018-05-03T10:12:42.653Z,21.40
2018-05-03T10:15:10.817Z,21.50
2018-05-03T10:17:39.806Z,21.50
2018-05-03T10:20:07.898Z,22.10
2018-05-03T10:22:36.055Z,22.40
2018-05-03T10:25:04.199Z,22.60
2018-05-03T10:27:32.321Z,22.60
2018-05-03T10:30:00.534Z,22.80
2018-05-03T10:32:29.385Z,23.40
2018-05-03T10:34:57.501Z,23.70
2018-05-03T10:37:25.675Z,23.80
2018-05-03T10:39:53.829Z,23.60
2018-05-03T10:42:21.986Z,24.00
2018-05-03T10:44:50.175Z,24.40
2018-05-03T10:47:18.333Z,24.90
2018-05-03T10:49:46.486Z,25.60
2018-05-03T10:52:14.629Z,25.20
2018-05-03T10:54:42.749Z,25.60
2018-05-03T10:57:10.894Z,25.80
2018-05-03T10:59:39.069Z,26.40
2018-05-03T11:02:07.208Z,26.20
2018-05-03T11:04:35.358Z,26.40
2018-05-03T11:07:03.544Z,26.70
2018-05-03T11:09:31.670Z,27.30
2018-05-03T11:11:59.824Z,27.80
2018-05-03T11:14:28.762Z,28.20
2018-05-03T11:16:56.885Z,28.30
2018-05-03T11:19:25.786Z,28.70
2018-05-03T11:21:53.910Z,29.40
2018-05-03T11:24:22.055Z,29.50
2018-05-03T11:26:50.196Z,29.80
2018-05-03T11:29:19.109Z,29.20
2018-05-03T11:31:47.232Z,29.60
2018-05-03T11:34:15.357Z,30.10
2018-05-03T11:36:43.568Z,31.10
2018-05-03T11:39:12.409Z,31.50
2018-05-03T11:41:40.561Z,31.30
2018-05-03T11:44:09.448Z,32.20
2018-05-03T11:46:38.378Z,32.40
2018-05-03T11:49:06.525Z,33.30
2018-05-03T11:51:34.667Z,33.60
2018-05-03T11:54:02.837Z,34.70
2018-05-03T11:56:31.766Z,35.80
2018-05-03T11:58:59.912Z,35.20
2018-05-03T12:01:28.825Z,35.00
2018-05-03T12:03:56.949Z,34.70
2018-05-03T12:06:25.103Z,35.60
2018-05-03T12:08:53.250Z,35.60
2018-05-03T12:11:21.404Z,36.80
2018-05-03T12:13:49.564Z,36.80
2018-05-03T12:16:18.491Z,38.00
2018-05-03T12:18:46.839Z,36.70
2018-05-03T12:21:15.757Z,35.90
2018-05-03T12:23:43.902Z,36.40
2018-05-03T12:26:12.819Z,35.70
2018-05-03T12:28:41.031Z,34.80
2018-05-03T12:31:09.156Z,31.90
2018-05-03T12:33:37.298Z,34.10
2018-05-03T12:36:06.324Z,33.80
2018-05-03T12:38:34.465Z,36.90
2018-05-03T12:41:03.373Z,35.10
2018-05-03T12:43:31.569Z,33.00
2018-05-03T12:45:59.684Z,35.50
2018-05-03T12:48:27.825Z,40.40
2018-05-03T12:50:55.972Z,42.20
2018-05-03T12:53:24.128Z,43.40
2018-05-03T12:55:53.038Z,44.40
2018-05-03T12:58:21.494Z,46.30
2018-05-03T13:00:50.422Z,47.30
2018-05-03T13:03:18.557Z,47.10
2018-05-03T13:05:47.456Z,47.30
2018-05-03T13:08:16.349Z,48.50
2018-05-03T13:10:44.519Z,44.50
2018-05-03T13:13:12.697Z,44.90
2018-05-03T13:15:40.847Z,42.80
2018-05-03T13:18:09.752Z,44.30
2018-05-03T13:20:38.660Z,45.70
2018-05-03T13:23:06.802Z,44.80
2018-05-03T13:25:39.654Z,40.40
2018-05-03T13:28:07.794Z,39.70
2018-05-03T13:30:35.921Z,37.90
2018-05-03T13:33:04.886Z,38.20
2018-05-03T13:35:33.050Z,38.40
2018-05-03T13:38:01.197Z,37.80
2018-05-03T13:40:29.493Z,38.30
2018-05-03T13:42:57.618Z,39.30
2018-05-03T13:45:26.542Z,37.70
2018-05-03T13:47:54.686Z,39.10
2018-05-03T13:50:23.568Z,39.80
2018-05-03T13:52:52.473Z,39.60
2018-05-03T13:55:20.844Z,41.90
2018-05-03T13:57:49.817Z,38.20
2018-05-03T14:00:17.962Z,41.00
2018-05-03T14:02:46.085Z,43.90
2018-05-03T14:05:14.258Z,44.40
2018-05-03T14:07:42.410Z,45.20
2018-05-03T14:10:11.870Z,43.90
2018-05-03T14:12:40.042Z,42.80
2018-05-03T14:15:08.199Z,44.90
2018-05-03T14:17:36.532Z,45.50
2018-05-03T14:20:04.680Z,46.00
2018-05-03T14:22:32.798Z,48.20
2018-05-03T14:25:01.759Z,44.90
2018-05-03T14:27:29.910Z,45.90
2018-05-03T14:29:58.238Z,46.20
2018-05-03T14:32:36.298Z,43.20
2018-05-03T14:35:04.449Z,43.60
2018-05-03T14:37:32.563Z,45.40
2018-05-03T14:40:00.903Z,47.70
2018-05-03T14:42:30.369Z,48.50
2018-05-03T14:44:59.499Z,47.50
2018-05-03T14:47:27.640Z,49.10
2018-05-03T14:49:55.796Z,49.40
2018-05-03T14:52:24.693Z,45.10
2018-05-03T14:54:53.602Z,45.90
2018-05-03T14:57:21.775Z,47.60
2018-05-03T14:59:49.923Z,45.10
2018-05-03T15:02:18.834Z,48.50
2018-05-03T15:04:46.972Z,44.60
2018-05-03T15:07:15.114Z,46.40
2018-05-03T15:09:43.309Z,45.60
2018-05-03T15:12:11.462Z,45.90
2018-05-03T15:14:39.581Z,45.90
2018-05-03T15:17:08.523Z,46.20
2018-05-03T15:19:36.707Z,47.40
2018-05-03T15:22:04.890Z,46.60
2018-05-03T15:24:33.013Z,45.10
2018-05-03T15:27:01.156Z,39.60
2018-05-03T15:29:30.057Z,40.30
2018-05-03T15:31:58.174Z,41.70
2018-05-03T15:34:26.318Z,40.80
2018-05-03T15:36:54.474Z,36.60
2018-05-03T15:39:22.649Z,34.60
2018-05-03T15:41:50.798Z,34.60
2018-05-03T15:44:19.685Z,37.20
2018-05-03T15:46:47.834Z,39.20
2018-05-03T15:49:16.017Z,40.40
2018-05-03T15:51:44.168Z,41.70
2018-05-03T15:54:12.322Z,40.50
2018-05-03T15:56:40.505Z,40.30
2018-05-03T15:59:08.649Z,37.40
2018-05-03T16:01:36.881Z,36.70
2018-05-03T16:04:05.691Z,35.70
2018-05-03T16:06:34.580Z,34.80
2018-05-03T16:09:03.522Z,32.30
2018-05-03T16:11:31.662Z,30.40
2018-05-03T16:13:59.831Z,29.20
2018-05-03T16:16:27.986Z,28.00
2018-05-03T16:18:56.937Z,26.90
2018-05-03T16:21:25.088Z,26.40
2018-05-03T16:23:53.246Z,26.60
2018-05-03T16:26:21.392Z,27.60
2018-05-03T16:28:50.285Z,29.70
2018-05-03T16:31:19.185Z,32.20
2018-05-03T16:33:48.114Z,33.10
2018-05-03T16:36:16.263Z,34.90
2018-05-03T16:38:44.434Z,34.90
2018-05-03T16:41:12.581Z,34.90
2018-05-03T16:43:41.485Z,35.50
2018-05-03T16:46:10.405Z,34.90
2018-05-03T16:48:38.590Z,35.00
2018-05-03T16:51:06.770Z,35.20
2018-05-03T16:53:34.916Z,35.70
2018-05-03T16:56:03.066Z,35.50
2018-05-03T16:58:31.952Z,34.40
2018-05-03T17:01:00.832Z,34.40
2018-05-03T17:03:29.790Z,34.10
2018-05-03T17:05:57.955Z,33.90
2018-05-03T17:08:26.109Z,33.00
2018-05-03T17:10:54.224Z,31.90
2018-05-03T17:13:22.334Z,30.10
2018-05-03T17:15:50.467Z,28.30
2018-05-03T17:18:18.576Z,26.70
2018-05-03T17:20:46.741Z,26.50
2018-05-03T17:23:15.645Z,27.70
2018-05-03T17:25:43.810Z,27.70
2018-05-03T17:28:11.966Z,28.20
2018-05-03T17:30:40.878Z,28.20
2018-05-03T17:33:09.025Z,28.10
2018-05-03T17:35:37.962Z,28.40
2018-05-03T17:38:06.109Z,28.40
2018-05-03T17:40:34.314Z,27.90
2018-05-03T17:43:02.460Z,27.60
2018-05-03T17:45:30.572Z,26.50
2018-05-03T17:47:58.709Z,25.20
2018-05-03T17:50:26.835Z,23.60
2018-05-03T17:52:54.954Z,22.60
2018-05-03T17:55:23.190Z,21.50
2018-05-03T17:57:51.328Z,20.70
2018-05-03T18:00:20.711Z,20.00
2018-05-03T18:02:48.865Z,19.70
2018-05-03T18:05:17.065Z,19.20
2018-05-03T18:07:45.241Z,18.50
2018-05-03T18:10:13.410Z,18.50
2018-05-03T18:12:41.577Z,18.30
2018-05-03T18:15:09.704Z,18.00
2018-05-03T18:17:38.621Z,17.70
2018-05-03T18:20:06.768Z,17.30
2018-05-03T18:22:35.644Z,17.10
2018-05-03T18:25:03.794Z,16.90
2018-05-03T18:27:31.932Z,16.50
2018-05-03T18:30:00.080Z,16.60
2018-05-03T18:32:28.989Z,16.30
2018-05-03T18:34:57.141Z,16.10
2018-05-03T18:37:25.281Z,16.20
2018-05-03T18:39:53.453Z,15.90
2018-05-03T18:42:21.602Z,15.60
2018-05-03T18:44:49.783Z,15.50
2018-05-03T18:47:17.979Z,15.40
2018-05-03T18:49:46.278Z,15.80
2018-05-03T18:52:15.069Z,15.60
2018-05-03T18:54:43.999Z,15.50
2018-05-03T18:57:12.174Z,15.40
2018-05-03T18:59:40.342Z,15.50
2018-05-03T19:02:08.553Z,15.30
2018-05-03T19:04:36.681Z,15.40
2018-05-03T19:07:04.805Z,15.00
2018-05-03T19:09:32.985Z,14.80
2018-05-03T19:12:01.953Z,14.80
2018-05-03T19:14:30.135Z,14.70
2018-05-03T19:16:58.271Z,14.60
2018-05-03T19:19:26.447Z,14.60
2018-05-03T19:21:54.639Z,14.40
2018-05-03T19:24:22.840Z,14.30
2018-05-03T19:26:51.780Z,14.30
2018-05-03T19:29:20.010Z,14.20
2018-05-03T19:31:48.955Z,14.20
2018-05-03T19:34:17.097Z,14.20
2018-05-03T19:36:45.294Z,14.10
2018-05-03T19:39:13.458Z,13.80
2018-05-03T19:41:41.590Z,13.90
2018-05-03T19:44:10.539Z,13.80
2018-05-03T19:46:38.696Z,13.80
2018-05-03T19:49:06.883Z,13.90
2018-05-03T19:51:35.026Z,13.80
2018-05-03T19:54:03.223Z,13.60
2018-05-03T19:56:31.357Z,13.40
2018-05-03T19:59:00.378Z,13.70
2018-05-03T20:01:28.533Z,13.90
2018-05-03T20:03:56.710Z,13.70
2018-05-03T20:06:24.840Z,13.50
2018-05-03T20:08:53.009Z,13.50
2018-05-03T20:11:21.165Z,13.40
2018-05-03T20:13:49.325Z,13.70
2018-05-03T20:16:17.510Z,13.30
2018-05-03T20:18:45.673Z,13.20
2018-05-03T20:21:13.796Z,13.10
2018-05-03T20:23:42.697Z,13.40
2018-05-03T20:26:10.858Z,13.30
2018-05-03T20:28:39.767Z,13.10
2018-05-03T20:31:07.912Z,13.10
2018-05-03T20:33:36.033Z,13.10
2018-05-03T20:36:04.168Z,13.00
2018-05-03T20:38:33.073Z,12.80
2018-05-03T20:41:01.194Z,12.90
2018-05-03T20:43:29.386Z,13.00
2018-05-03T20:45:57.668Z,12.60
2018-05-03T20:48:26.565Z,12.90
2018-05-03T20:50:55.467Z,12.90
2018-05-03T20:53:35.700Z,12.60
2018-05-03T20:56:06.703Z,12.60
2018-05-03T20:58:38.432Z,12.80
2018-05-03T21:03:43.913Z,12.80
2018-05-03T21:06:14.276Z,12.80
2018-05-03T21:08:42.445Z,12.90
2018-05-03T21:11:10.596Z,12.70
2018-05-03T21:13:38.744Z,12.50
2018-05-03T21:16:06.911Z,12.60
2018-05-03T21:18:35.029Z,12.50
2018-05-03T21:21:03.172Z,12.60
2018-05-03T21:23:31.297Z,12.60
2018-05-03T21:26:00.262Z,12.50
2018-05-03T21:28:28.374Z,12.50
2018-05-03T21:30:56.496Z,12.60
2018-05-03T21:33:24.670Z,12.60
2018-05-03T21:35:52.797Z,12.50
2018-05-03T21:38:20.961Z,12.40
2018-05-03T21:40:49.111Z,12.40
2018-05-03T21:43:18.021Z,12.50
2018-05-03T21:45:46.145Z,12.40
2018-05-03T21:48:14.298Z,12.60
2018-05-03T21:50:42.457Z,12.70
2018-05-03T21:53:10.576Z,12.70
2018-05-03T21:55:38.715Z,12.60
2018-05-03T21:58:06.862Z,12.70
2018-05-03T22:00:35.012Z,12.40
2018-05-03T22:03:03.939Z,12.50
2018-05-03T22:05:32.065Z,12.50
2018-05-03T22:08:00.294Z,12.50
2018-05-03T22:10:28.449Z,12.40
2018-05-03T22:12:56.573Z,12.30
2018-05-03T22:15:24.714Z,12.40
2018-05-03T22:17:52.854Z,12.30
2018-05-03T22:20:21.010Z,12.20
2018-05-03T22:22:49.916Z,12.20
2018-05-03T22:25:18.698Z,12.10
2018-05-03T22:27:47.599Z,12.20
2018-05-03T22:30:15.713Z,12.10
2018-05-03T22:32:43.851Z,12.00
2018-05-03T22:35:11.988Z,11.80
2018-05-03T22:37:40.146Z,11.60
2018-05-03T22:40:08.277Z,11.80
2018-05-03T22:42:36.438Z,11.80
2018-05-03T22:45:04.601Z,11.70
2018-05-03T22:47:32.773Z,11.80
2018-05-03T22:50:00.898Z,11.70
2018-05-03T22:52:29.069Z,11.70
2018-05-03T22:54:57.247Z,11.70
2018-05-03T22:57:25.346Z,11.60
2018-05-03T22:59:54.303Z,11.70
2018-05-03T23:02:22.434Z,11.60
2018-05-03T23:04:50.582Z,11.60
2018-05-03T23:07:19.503Z,11.60
2018-05-03T23:09:47.621Z,11.50
2018-05-03T23:12:15.789Z,11.40
2018-05-03T23:14:43.915Z,11.40
2018-05-03T23:17:12.087Z,11.50
2018-05-03T23:19:40.262Z,11.50
2018-05-03T23:22:08.477Z,11.50
2018-05-03T23:24:36.801Z,11.40
2018-05-03T23:27:04.950Z,11.50
2018-05-03T23:29:33.888Z,11.50
2018-05-03T23:32:02.005Z,11.40
2018-05-03T23:34:30.159Z,11.30
2018-05-03T23:36:58.312Z,11.30
2018-05-03T23:39:26.429Z,11.30
2018-05-03T23:41:55.347Z,11.30
2018-05-03T23:44:23.537Z,11.00
2018-05-03T23:46:51.685Z,11.10
2018-05-03T23:49:20.599Z,11.10
2018-05-03T23:51:48.758Z,11.00
2018-05-03T23:54:16.907Z,10.90
2018-05-03T23:56:45.820Z,11.00
2018-05-03T23:59:13.939Z,11.00
